Time;durP1;ratioP1;P1;durP2;ratioP2;P2;SDS_P1;SDS_P2;PMS_P1;PMS_P2;Temp;Humidity;BMP_temperature;BMP_pressure;BME280_temperature;BME280_humidity;BME280_pressure;Samples;Min_cycle;Max_cycle;Signal;HPM_P1;HPM_P2
2024/01/28 00:02:20;;;;;;;19.17;8.23;;;;;;;;;;4970969;28;25055;-65
2024/01/28 00:04:46;;;;;;;22.10;8.60;;;;;;;;;;4971868;28;25076;-65
2024/01/28 00:07:12;;;;;;;20.90;8.55;;;;;;;;;;4972827;28;25058;-65
2024/01/28 00:09:38;;;;;;;25.10;8.90;;;;;;;;;;4971557;28;25073;-64
2024/01/28 00:12:04;;;;;;;20.73;8.73;;;;;;;;;;4970315;28;25072;-64
2024/01/28 00:14:30;;;;;;;21.77;8.20;;;;;;;;;;4970043;28;25145;-63
2024/01/28 00:16:56;;;;;;;19.08;7.85;;;;;;;;;;4970771;28;25145;-64
2024/01/28 00:19:22;;;;;;;23.88;10.13;;;;;;;;;;4968158;28;25066;-64
2024/01/28 00:21:48;;;;;;;17.65;7.90;;;;;;;;;;4971391;28;25150;-65
2024/01/28 00:24:14;;;;;;;26.05;9.48;;;;;;;;;;4970543;28;25134;-67
2024/01/28 00:26:41;;;;;;;21.77;9.48;;;;;;;;;;4969447;28;25069;-64
2024/01/28 00:29:07;;;;;;;24.00;9.55;;;;;;;;;;4969657;28;25053;-65
2024/01/28 00:31:33;;;;;;;24.85;8.30;;;;;;;;;;4969657;28;25146;-66
2024/01/28 00:34:00;;;;;;;19.50;8.75;;;;;;;;;;4969140;28;25165;-63
2024/01/28 00:36:26;;;;;;;22.77;8.80;;;;;;;;;;4970546;28;25072;-65
2024/01/28 00:38:52;;;;;;;24.38;8.50;;;;;;;;;;4968851;28;25127;-64
2024/01/28 00:41:22;;;;;;;17.08;8.48;;;;;;;;;;4970607;28;25056;-64
2024/01/28 00:43:49;;;;;;;18.75;7.90;;;;;;;;;;4970095;28;25077;-65
2024/01/28 00:46:15;;;;;;;20.15;9.43;;;;;;;;;;4970692;28;25048;-64
2024/01/28 00:48:40;;;;;;;18.60;7.28;;;;;;;;;;4970256;28;25140;-65
2024/01/28 00:51:06;;;;;;;23.63;7.70;;;;;;;;;;4974819;28;25058;-63
2024/01/28 00:53:33;;;;;;;28.00;8.57;;;;;;;;;;4976144;28;25093;-64
2024/01/28 00:55:58;;;;;;;24.55;8.45;;;;;;;;;;4977448;28;25070;-64
2024/01/28 00:58:29;;;;;;;22.73;8.32;;;;;;;;;;4984827;28;25059;-64
2024/01/28 01:00:54;;;;;;;24.33;9.60;;;;;;;;;;4963041;28;25089;-64
2024/01/28 01:03:20;;;;;;;25.23;7.95;;;;;;;;;;4969925;28;25115;-63
2024/01/28 01:05:47;;;;;;;19.92;7.55;;;;;;;;;;4969412;28;25062;-64
2024/01/28 01:08:13;;;;;;;21.48;7.63;;;;;;;;;;4966163;28;25166;-64
2024/01/28 01:10:39;;;;;;;19.52;7.50;;;;;;;;;;4962929;28;25137;-64
2024/01/28 01:13:05;;;;;;;23.25;8.48;;;;;;;;;;4969849;28;25125;-64
2024/01/28 01:15:31;;;;;;;25.27;8.68;;;;;;;;;;4969907;28;25098;-64
2024/01/28 01:17:57;;;;;;;21.70;7.85;;;;;;;;;;4972262;28;25140;-65
2024/01/28 01:20:23;;;;;;;26.92;8.15;;;;;;;;;;4951885;28;25158;-64
2024/01/28 01:22:49;;;;;;;24.35;8.07;;;;;;;;;;4960931;28;25087;-64
2024/01/28 01:25:15;;;;;;;22.30;8.98;;;;;;;;;;4989314;28;25078;-64
2024/01/28 01:27:41;;;;;;;18.02;7.82;;;;;;;;;;4970757;28;25162;-63
2024/01/28 01:30:09;;;;;;;22.17;8.25;;;;;;;;;;4988369;28;25112;-64
2024/01/28 01:32:40;;;;;;;20.52;8.52;;;;;;;;;;4971400;28;25069;-65
2024/01/28 01:35:07;;;;;;;17.63;8.00;;;;;;;;;;4968742;28;25148;-63
2024/01/28 01:37:33;;;;;;;22.35;8.55;;;;;;;;;;4965863;28;25097;-64
2024/01/28 01:40:00;;;;;;;19.38;8.35;;;;;;;;;;4948324;28;25164;-64
2024/01/28 01:42:26;;;;;;;24.38;9.32;;;;;;;;;;4968919;28;25050;-64
2024/01/28 01:44:52;;;;;;;18.15;7.45;;;;;;;;;;4967515;28;25086;-64
2024/01/28 01:47:19;;;;;;;17.15;7.80;;;;;;;;;;4968936;28;25155;-64
2024/01/28 01:49:45;;;;;;;19.55;8.38;;;;;;;;;;4969238;28;25087;-63
2024/01/28 01:52:12;;;;;;;20.10;7.60;;;;;;;;;;4969904;28;25110;-66
2024/01/28 01:54:38;;;;;;;13.85;7.15;;;;;;;;;;4969420;28;25074;-65
2024/01/28 01:57:04;;;;;;;25.88;8.88;;;;;;;;;;4967407;28;25161;-64
2024/01/28 01:59:30;;;;;;;27.70;10.18;;;;;;;;;;4968865;28;25106;-64
2024/01/28 02:01:58;;;;;;;22.67;7.85;;;;;;;;;;4967530;28;25077;-63
2024/01/28 02:04:24;;;;;;;19.25;8.35;;;;;;;;;;4961959;28;25059;-64
2024/01/28 02:06:50;;;;;;;18.13;8.18;;;;;;;;;;4960935;28;25077;-64
2024/01/28 02:09:16;;;;;;;21.50;8.38;;;;;;;;;;4983238;28;25055;-64
2024/01/28 02:11:43;;;;;;;22.42;8.57;;;;;;;;;;4982728;28;25125;-65
2024/01/28 02:14:10;;;;;;;18.75;8.68;;;;;;;;;;4985092;28;25054;-66
2024/01/28 02:16:36;;;;;;;21.08;8.55;;;;;;;;;;4976351;28;25064;-66
2024/01/28 02:19:02;;;;;;;18.30;8.63;;;;;;;;;;4975842;28;25072;-65
2024/01/28 02:21:28;;;;;;;22.98;8.65;;;;;;;;;;4989523;28;25076;-65
2024/01/28 02:23:54;;;;;;;20.15;8.75;;;;;;;;;;4971478;28;25100;-65
2024/01/28 02:26:20;;;;;;;22.15;8.35;;;;;;;;;;4968052;28;25137;-65
2024/01/28 02:28:45;;;;;;;18.23;7.95;;;;;;;;;;4969167;28;25070;-64
2024/01/28 02:31:11;;;;;;;20.95;8.30;;;;;;;;;;4967399;28;25084;-65
2024/01/28 02:33:37;;;;;;;18.63;8.15;;;;;;;;;;4969983;28;25028;-66
2024/01/28 02:36:03;;;;;;;19.83;8.27;;;;;;;;;;4971274;28;25077;-66
2024/01/28 02:38:29;;;;;;;21.80;8.05;;;;;;;;;;4969982;28;25081;-65
2024/01/28 02:40:56;;;;;;;20.55;8.15;;;;;;;;;;4970375;28;25059;-65
2024/01/28 02:43:22;;;;;;;29.05;8.38;;;;;;;;;;4970977;28;25109;-66
2024/01/28 02:45:48;;;;;;;20.38;8.43;;;;;;;;;;4971213;28;25073;-65
2024/01/28 02:48:13;;;;;;;17.80;7.80;;;;;;;;;;4984490;28;25077;-65
2024/01/28 02:50:39;;;;;;;20.20;7.82;;;;;;;;;;4970137;28;25067;-64
2024/01/28 02:53:05;;;;;;;15.38;8.82;;;;;;;;;;4968599;28;25067;-65
2024/01/28 02:55:32;;;;;;;20.05;8.15;;;;;;;;;;4965009;28;25067;-65
2024/01/28 02:57:57;;;;;;;22.60;8.10;;;;;;;;;;4968206;28;25188;-65
2024/01/28 03:00:23;;;;;;;19.33;8.40;;;;;;;;;;4970461;28;25062;-64
2024/01/28 03:02:49;;;;;;;17.30;7.53;;;;;;;;;;4970954;28;25075;-64
2024/01/28 03:05:15;;;;;;;20.98;8.30;;;;;;;;;;4968559;28;25069;-64
2024/01/28 03:07:41;;;;;;;19.83;8.23;;;;;;;;;;4971081;28;25084;-64
2024/01/28 03:10:08;;;;;;;15.95;8.10;;;;;;;;;;4968706;28;25026;-64
2024/01/28 03:12:34;;;;;;;20.05;8.35;;;;;;;;;;4968675;28;25039;-64
2024/01/28 03:15:00;;;;;;;17.00;7.60;;;;;;;;;;4987458;28;25090;-64
2024/01/28 03:17:26;;;;;;;13.35;7.20;;;;;;;;;;4984574;28;25077;-64
2024/01/28 03:19:52;;;;;;;23.30;8.27;;;;;;;;;;4965688;28;25089;-65
2024/01/28 03:22:18;;;;;;;18.27;8.15;;;;;;;;;;4971501;28;25076;-65
2024/01/28 03:24:44;;;;;;;21.33;7.38;;;;;;;;;;4966747;28;25090;-63
2024/01/28 03:27:10;;;;;;;24.88;8.52;;;;;;;;;;4972059;28;25092;-64
2024/01/28 03:29:36;;;;;;;19.08;8.23;;;;;;;;;;4966419;28;25094;-65
2024/01/28 03:32:02;;;;;;;17.20;7.47;;;;;;;;;;4965762;28;25046;-65
2024/01/28 03:34:28;;;;;;;16.08;7.00;;;;;;;;;;4984235;28;25069;-63
2024/01/28 03:36:54;;;;;;;18.60;7.18;;;;;;;;;;4989563;28;25075;-64
2024/01/28 03:39:20;;;;;;;18.08;6.85;;;;;;;;;;4965623;28;25102;-62
2024/01/28 03:41:46;;;;;;;17.30;7.07;;;;;;;;;;4967932;28;25072;-64
2024/01/28 03:44:15;;;;;;;18.42;6.90;;;;;;;;;;4963859;28;25049;-62
2024/01/28 03:46:41;;;;;;;14.85;6.55;;;;;;;;;;4965179;28;25075;-63
2024/01/28 03:49:07;;;;;;;14.77;7.07;;;;;;;;;;4966924;28;25136;-64
2024/01/28 03:51:33;;;;;;;19.50;6.70;;;;;;;;;;4980262;28;25072;-65
2024/01/28 03:53:59;;;;;;;20.20;6.70;;;;;;;;;;4971560;28;25071;-65
2024/01/28 03:56:25;;;;;;;15.40;6.45;;;;;;;;;;4971202;28;25057;-65
2024/01/28 03:58:51;;;;;;;17.23;6.22;;;;;;;;;;4965622;28;25095;-63
2024/01/28 04:01:17;;;;;;;16.95;7.88;;;;;;;;;;4967045;28;25048;-64
2024/01/28 04:03:43;;;;;;;13.80;6.60;;;;;;;;;;4972350;28;25097;-64
2024/01/28 04:06:08;;;;;;;17.45;6.65;;;;;;;;;;4948032;28;25064;-64
2024/01/28 04:08:35;;;;;;;15.02;6.88;;;;;;;;;;4966581;28;25083;-64
2024/01/28 04:11:02;;;;;;;15.02;7.07;;;;;;;;;;4969477;28;25048;-63
2024/01/28 04:13:29;;;;;;;17.92;7.82;;;;;;;;;;4975344;28;25052;-64
2024/01/28 04:15:55;;;;;;;12.82;6.90;;;;;;;;;;4968301;28;25130;-65
2024/01/28 04:18:21;;;;;;;16.50;7.55;;;;;;;;;;4971011;28;25080;-64
2024/01/28 04:20:47;;;;;;;23.63;8.35;;;;;;;;;;4969831;28;25046;-65
2024/01/28 04:23:15;;;;;;;20.42;8.82;;;;;;;;;;4970821;28;25135;-64
2024/01/28 04:25:41;;;;;;;18.58;8.32;;;;;;;;;;4983078;28;25066;-64
2024/01/28 04:28:07;;;;;;;18.83;8.90;;;;;;;;;;4989112;28;25062;-64
2024/01/28 04:30:33;;;;;;;20.75;8.80;;;;;;;;;;4986750;28;25090;-64
2024/01/28 04:32:59;;;;;;;19.95;8.15;;;;;;;;;;4981205;28;25098;-64
2024/01/28 04:35:25;;;;;;;20.90;8.90;;;;;;;;;;4973453;28;25101;-63
2024/01/28 04:37:51;;;;;;;23.63;9.85;;;;;;;;;;4974695;28;25057;-63
2024/01/28 04:40:17;;;;;;;22.33;8.68;;;;;;;;;;4978693;28;25163;-64
2024/01/28 04:42:43;;;;;;;16.00;8.80;;;;;;;;;;4975718;28;25075;-63
2024/01/28 04:45:10;;;;;;;19.05;8.80;;;;;;;;;;4967653;28;25070;-65
2024/01/28 04:47:38;;;;;;;16.17;7.95;;;;;;;;;;4974024;28;25182;-64
2024/01/28 04:50:04;;;;;;;27.38;8.68;;;;;;;;;;4972749;28;25045;-64
2024/01/28 04:52:30;;;;;;;16.40;8.13;;;;;;;;;;4950123;28;25066;-63
2024/01/28 04:54:56;;;;;;;17.85;7.93;;;;;;;;;;4949170;28;25087;-62
2024/01/28 04:57:22;;;;;;;18.27;7.97;;;;;;;;;;4976277;28;25079;-64
2024/01/28 04:59:48;;;;;;;21.13;9.00;;;;;;;;;;4970478;28;25050;-64
2024/01/28 05:02:14;;;;;;;23.33;9.45;;;;;;;;;;4983264;28;25057;-65
2024/01/28 05:04:40;;;;;;;22.08;9.57;;;;;;;;;;4969451;28;25087;-64
2024/01/28 05:07:06;;;;;;;27.27;9.35;;;;;;;;;;4969214;28;25058;-63
2024/01/28 05:09:32;;;;;;;23.38;10.20;;;;;;;;;;4980028;28;25070;-63
2024/01/28 05:11:59;;;;;;;20.83;9.02;;;;;;;;;;4973548;28;25075;-64
2024/01/28 05:14:25;;;;;;;18.45;9.27;;;;;;;;;;4978263;28;25079;-63
2024/01/28 05:16:51;;;;;;;22.02;9.82;;;;;;;;;;4974054;28;25130;-63
2024/01/28 05:19:17;;;;;;;19.92;9.93;;;;;;;;;;4972507;28;25057;-64
2024/01/28 05:21:43;;;;;;;24.27;9.95;;;;;;;;;;4970911;28;25064;-65
2024/01/28 05:24:09;;;;;;;20.75;9.32;;;;;;;;;;4972506;28;25071;-65
2024/01/28 05:26:37;;;;;;;20.98;9.38;;;;;;;;;;4965961;28;25086;-64
2024/01/28 05:29:05;;;;;;;27.15;10.65;;;;;;;;;;4965315;28;25085;-65
2024/01/28 05:31:32;;;;;;;25.27;9.90;;;;;;;;;;4969813;28;25109;-64
2024/01/28 05:33:59;;;;;;;22.77;10.52;;;;;;;;;;4972741;28;25073;-63
2024/01/28 05:36:26;;;;;;;24.05;9.18;;;;;;;;;;4968191;28;25084;-65
2024/01/28 05:38:54;;;;;;;20.13;10.05;;;;;;;;;;4964729;28;25106;-64
2024/01/28 05:41:20;;;;;;;21.88;10.73;;;;;;;;;;4972117;28;25069;-64
2024/01/28 05:43:46;;;;;;;20.02;8.80;;;;;;;;;;4973677;28;25161;-65
2024/01/28 05:46:12;;;;;;;25.10;10.07;;;;;;;;;;4973875;28;25076;-64
2024/01/28 05:48:38;;;;;;;20.90;11.02;;;;;;;;;;4969554;28;25060;-64
2024/01/28 05:51:04;;;;;;;21.38;9.32;;;;;;;;;;4972820;28;25065;-64
2024/01/28 05:53:30;;;;;;;25.27;10.63;;;;;;;;;;4992410;28;25077;-64
2024/01/28 05:55:56;;;;;;;19.85;10.32;;;;;;;;;;4969556;28;25160;-63
2024/01/28 05:58:22;;;;;;;16.25;9.57;;;;;;;;;;4967552;28;25078;-64
2024/01/28 06:00:48;;;;;;;19.90;9.98;;;;;;;;;;4970307;28;25129;-66
2024/01/28 06:03:14;;;;;;;27.00;9.60;;;;;;;;;;4969206;28;25133;-63
2024/01/28 06:05:41;;;;;;;20.05;10.32;;;;;;;;;;4968926;28;25073;-63
2024/01/28 06:08:07;;;;;;;30.63;10.30;;;;;;;;;;4970365;28;25095;-63
2024/01/28 06:10:33;;;;;;;27.02;10.15;;;;;;;;;;4973287;28;25161;-64
2024/01/28 06:12:59;;;;;;;24.17;9.90;;;;;;;;;;4968364;28;25044;-64
2024/01/28 06:15:27;;;;;;;17.73;9.75;;;;;;;;;;4966763;28;25083;-64
2024/01/28 06:17:53;;;;;;;21.80;10.13;;;;;;;;;;4965248;28;25070;-63
2024/01/28 06:20:19;;;;;;;21.92;9.93;;;;;;;;;;4957807;28;25050;-64
2024/01/28 06:22:45;;;;;;;19.48;9.43;;;;;;;;;;4963275;28;25074;-63
2024/01/28 06:25:11;;;;;;;24.50;10.82;;;;;;;;;;4952059;28;25133;-64
2024/01/28 06:27:37;;;;;;;25.48;9.95;;;;;;;;;;4969238;28;25147;-64
2024/01/28 06:30:03;;;;;;;27.38;10.07;;;;;;;;;;4967264;28;25099;-63
2024/01/28 06:32:29;;;;;;;16.58;8.82;;;;;;;;;;4990249;28;25048;-65
2024/01/28 06:34:55;;;;;;;23.17;10.65;;;;;;;;;;4970036;28;25059;-62
2024/01/28 06:37:21;;;;;;;23.75;10.20;;;;;;;;;;4971722;28;25161;-63
2024/01/28 06:39:51;;;;;;;25.45;9.32;;;;;;;;;;4969115;28;25110;-63
2024/01/28 06:42:18;;;;;;;20.98;9.07;;;;;;;;;;4975291;28;25080;-64
2024/01/28 06:44:44;;;;;;;18.10;9.32;;;;;;;;;;4979555;28;25116;-63
2024/01/28 06:47:10;;;;;;;20.35;9.38;;;;;;;;;;4968244;28;25048;-66
2024/01/28 06:49:36;;;;;;;22.70;9.73;;;;;;;;;;4970166;28;25065;-63
2024/01/28 06:52:02;;;;;;;19.77;9.38;;;;;;;;;;4957133;28;25070;-62
2024/01/28 06:54:28;;;;;;;20.10;10.20;;;;;;;;;;4975799;28;25090;-63
2024/01/28 06:56:54;;;;;;;16.23;9.70;;;;;;;;;;4973173;28;25054;-66
2024/01/28 06:59:20;;;;;;;20.35;9.07;;;;;;;;;;4968073;28;25067;-63
2024/01/28 07:01:46;;;;;;;15.98;10.00;;;;;;;;;;4971375;28;25104;-66
2024/01/28 07:04:12;;;;;;;22.98;9.43;;;;;;;;;;4973226;28;25204;-64
2024/01/28 07:06:38;;;;;;;18.23;8.95;;;;;;;;;;4968555;28;25076;-63
2024/01/28 07:09:05;;;;;;;19.50;9.57;;;;;;;;;;4963514;28;25121;-64
2024/01/28 07:11:31;;;;;;;16.60;8.95;;;;;;;;;;4972744;28;25148;-63
2024/01/28 07:13:57;;;;;;;18.92;8.27;;;;;;;;;;4963010;28;25146;-63
2024/01/28 07:16:23;;;;;;;19.23;9.18;;;;;;;;;;4948106;28;25066;-63
2024/01/28 07:18:49;;;;;;;17.58;9.05;;;;;;;;;;4960751;28;25075;-63
2024/01/28 07:21:16;;;;;;;22.98;8.70;;;;;;;;;;4970301;28;25058;-64
2024/01/28 07:23:41;;;;;;;14.10;8.45;;;;;;;;;;4966884;28;25166;-63
2024/01/28 07:26:09;;;;;;;19.20;8.05;;;;;;;;;;4968615;28;25099;-64
2024/01/28 07:28:35;;;;;;;13.63;6.93;;;;;;;;;;4965131;28;25058;-63
2024/01/28 07:31:03;;;;;;;16.15;7.82;;;;;;;;;;4963934;28;25057;-64
2024/01/28 07:33:29;;;;;;;16.25;6.50;;;;;;;;;;4967494;28;25061;-63
2024/01/28 07:35:55;;;;;;;12.02;5.93;;;;;;;;;;4957696;28;25062;-64
2024/01/28 07:38:21;;;;;;;15.43;6.88;;;;;;;;;;4966554;28;25142;-63
2024/01/28 07:40:47;;;;;;;9.50;5.28;;;;;;;;;;4970567;28;25070;-64
2024/01/28 07:43:13;;;;;;;13.98;5.78;;;;;;;;;;4969269;28;25077;-65
2024/01/28 07:45:39;;;;;;;16.65;6.10;;;;;;;;;;4973577;28;25062;-64
2024/01/28 07:48:05;;;;;;;13.80;6.22;;;;;;;;;;4973545;28;25067;-63
2024/01/28 07:50:31;;;;;;;12.00;6.55;;;;;;;;;;4976264;28;25080;-63
2024/01/28 07:52:57;;;;;;;14.10;6.60;;;;;;;;;;4975224;28;25137;-64
2024/01/28 07:55:24;;;;;;;17.63;6.35;;;;;;;;;;4972590;28;25064;-64
2024/01/28 07:57:50;;;;;;;10.73;6.63;;;;;;;;;;4973509;28;25097;-67
2024/01/28 08:00:16;;;;;;;18.38;6.50;;;;;;;;;;4969949;28;25109;-63
2024/01/28 08:02:42;;;;;;;13.50;6.35;;;;;;;;;;4969676;28;25060;-63
2024/01/28 08:05:08;;;;;;;12.35;5.88;;;;;;;;;;4965149;28;25172;-64
2024/01/28 08:07:34;;;;;;;15.25;6.78;;;;;;;;;;4971418;28;25116;-63
2024/01/28 08:10:01;;;;;;;19.33;7.35;;;;;;;;;;4975116;28;25100;-64
2024/01/28 08:12:27;;;;;;;15.85;7.25;;;;;;;;;;4969008;28;25213;-63
2024/01/28 08:14:53;;;;;;;17.23;6.85;;;;;;;;;;4971440;28;25131;-62
2024/01/28 08:17:19;;;;;;;11.43;5.85;;;;;;;;;;4969133;28;25073;-64
2024/01/28 08:19:45;;;;;;;12.85;5.75;;;;;;;;;;4971521;28;25077;-64
2024/01/28 08:22:11;;;;;;;11.73;5.35;;;;;;;;;;4969613;28;25081;-64
2024/01/28 08:24:38;;;;;;;16.60;6.65;;;;;;;;;;4970761;28;25136;-62
2024/01/28 08:27:04;;;;;;;9.63;5.18;;;;;;;;;;4968930;28;25052;-65
2024/01/28 08:29:30;;;;;;;7.47;4.68;;;;;;;;;;4970217;28;25058;-65
2024/01/28 08:31:57;;;;;;;11.23;4.95;;;;;;;;;;4969410;28;25072;-64
2024/01/28 08:34:23;;;;;;;10.30;5.30;;;;;;;;;;4970546;28;25069;-64
2024/01/28 08:36:50;;;;;;;12.43;5.28;;;;;;;;;;4970467;28;25077;-64
2024/01/28 08:39:16;;;;;;;10.52;4.85;;;;;;;;;;4971881;28;25130;-63
2024/01/28 08:41:42;;;;;;;9.75;4.85;;;;;;;;;;4974999;28;25071;-63
2024/01/28 08:44:08;;;;;;;10.52;5.57;;;;;;;;;;4971851;28;25076;-65
2024/01/28 08:46:38;;;;;;;8.70;5.28;;;;;;;;;;4974049;28;25069;-64
2024/01/28 08:49:04;;;;;;;14.82;4.93;;;;;;;;;;4972799;28;25068;-65
2024/01/28 08:51:30;;;;;;;12.05;4.78;;;;;;;;;;4974409;28;25063;-64
2024/01/28 08:53:56;;;;;;;7.72;4.32;;;;;;;;;;4971352;28;25143;-63
2024/01/28 08:56:22;;;;;;;8.90;4.95;;;;;;;;;;4970200;28;25068;-63
2024/01/28 08:58:48;;;;;;;18.90;5.78;;;;;;;;;;4988012;28;25048;-63
2024/01/28 09:01:14;;;;;;;10.90;4.95;;;;;;;;;;4975942;28;25070;-65
2024/01/28 09:03:40;;;;;;;8.45;4.60;;;;;;;;;;4979131;28;25062;-63
2024/01/28 09:06:06;;;;;;;11.60;4.90;;;;;;;;;;4981829;28;25130;-64
2024/01/28 09:08:33;;;;;;;12.02;4.18;;;;;;;;;;4974885;28;25091;-63
2024/01/28 09:11:00;;;;;;;8.15;4.63;;;;;;;;;;4974213;28;25068;-64
2024/01/28 09:13:26;;;;;;;9.93;4.15;;;;;;;;;;4970021;28;25070;-64
2024/01/28 09:15:53;;;;;;;12.20;5.05;;;;;;;;;;4970010;28;25099;-63
2024/01/28 09:18:19;;;;;;;24.85;6.53;;;;;;;;;;4971114;28;25068;-62
2024/01/28 09:20:45;;;;;;;37.72;8.18;;;;;;;;;;4969729;28;25063;-64
2024/01/28 09:23:11;;;;;;;25.67;6.50;;;;;;;;;;4969340;28;25118;-65
2024/01/28 09:25:37;;;;;;;14.52;5.60;;;;;;;;;;4968666;28;25138;-63
2024/01/28 09:28:03;;;;;;;13.60;5.95;;;;;;;;;;4968916;28;25078;-66
2024/01/28 09:30:29;;;;;;;11.93;6.10;;;;;;;;;;4968727;28;25163;-65
2024/01/28 09:32:55;;;;;;;12.90;5.78;;;;;;;;;;4966551;28;25055;-65
2024/01/28 09:35:21;;;;;;;14.65;5.03;;;;;;;;;;4962168;28;25091;-63
2024/01/28 09:37:48;;;;;;;11.63;5.40;;;;;;;;;;4965844;28;25091;-64
2024/01/28 09:40:14;;;;;;;13.38;6.43;;;;;;;;;;4949459;28;25065;-66
2024/01/28 09:42:47;;;;;;;14.68;6.13;;;;;;;;;;4950056;28;25071;-64
2024/01/28 09:45:13;;;;;;;15.25;7.40;;;;;;;;;;4953095;28;25062;-64
2024/01/28 09:47:40;;;;;;;13.57;5.97;;;;;;;;;;4951961;28;25059;-63
2024/01/28 09:50:06;;;;;;;13.05;5.88;;;;;;;;;;4960269;28;25056;-63
2024/01/28 09:52:32;;;;;;;14.35;5.75;;;;;;;;;;4969832;28;25079;-65
2024/01/28 09:54:58;;;;;;;10.73;5.57;;;;;;;;;;4967493;28;25084;-66
2024/01/28 09:57:25;;;;;;;15.10;5.28;;;;;;;;;;4968240;28;25078;-66
2024/01/28 09:59:51;;;;;;;10.95;5.18;;;;;;;;;;4969921;28;25050;-67
2024/01/28 10:02:18;;;;;;;8.73;5.10;;;;;;;;;;4969674;28;25068;-65
2024/01/28 10:04:45;;;;;;;11.73;5.40;;;;;;;;;;4968860;28;25048;-65
2024/01/28 10:07:12;;;;;;;10.73;4.80;;;;;;;;;;4966769;28;25133;-66
2024/01/28 10:09:38;;;;;;;9.52;4.95;;;;;;;;;;4972083;28;25089;-66
2024/01/28 10:12:04;;;;;;;8.50;4.40;;;;;;;;;;4972428;28;25056;-66
2024/01/28 10:14:31;;;;;;;9.50;4.45;;;;;;;;;;4973109;28;25069;-64
2024/01/28 10:16:57;;;;;;;12.27;4.55;;;;;;;;;;4973233;28;25132;-65
2024/01/28 10:19:23;;;;;;;9.85;4.32;;;;;;;;;;4968730;28;25065;-65
2024/01/28 10:21:49;;;;;;;10.15;4.88;;;;;;;;;;4969437;28;25078;-65
2024/01/28 10:24:16;;;;;;;11.68;4.80;;;;;;;;;;4964667;28;25073;-65
2024/01/28 10:26:42;;;;;;;13.25;5.13;;;;;;;;;;4960925;28;25061;-65
2024/01/28 10:29:09;;;;;;;8.45;4.28;;;;;;;;;;4962978;28;25115;-66
2024/01/28 10:31:37;;;;;;;8.15;3.75;;;;;;;;;;4953581;28;25084;-67
2024/01/28 10:34:03;;;;;;;6.93;3.80;;;;;;;;;;4962868;28;25119;-66
2024/01/28 10:36:31;;;;;;;8.75;4.30;;;;;;;;;;4961116;28;25054;-66
2024/01/28 10:39:03;;;;;;;9.30;3.88;;;;;;;;;;4963904;28;25054;-65
2024/01/28 10:41:30;;;;;;;10.35;3.85;;;;;;;;;;4966549;28;25079;-65
2024/01/28 10:44:08;;;;;;;8.43;4.00;;;;;;;;;;4967521;28;25067;-66
2024/01/28 10:46:37;;;;;;;8.80;4.22;;;;;;;;;;4965345;28;25050;-66
2024/01/28 10:49:04;;;;;;;7.47;4.00;;;;;;;;;;4966555;28;25099;-66
2024/01/28 10:51:32;;;;;;;8.65;3.63;;;;;;;;;;4967351;28;25056;-66
2024/01/28 10:53:58;;;;;;;8.27;3.45;;;;;;;;;;4967569;28;25097;-65
2024/01/28 10:56:24;;;;;;;7.88;3.38;;;;;;;;;;4969042;28;25162;-65
2024/01/28 10:58:50;;;;;;;9.52;3.55;;;;;;;;;;4969129;28;25083;-67
2024/01/28 11:01:17;;;;;;;7.03;3.30;;;;;;;;;;4965439;28;25078;-65
2024/01/28 11:03:44;;;;;;;6.68;3.55;;;;;;;;;;4966855;28;25070;-67
2024/01/28 11:06:10;;;;;;;4.75;3.30;;;;;;;;;;4969393;28;25054;-65
2024/01/28 11:08:36;;;;;;;5.10;3.65;;;;;;;;;;4965645;28;25055;-66
2024/01/28 11:11:02;;;;;;;7.45;3.15;;;;;;;;;;4972975;28;25075;-65
2024/01/28 11:13:28;;;;;;;7.30;3.67;;;;;;;;;;4970337;28;25070;-67
2024/01/28 11:15:55;;;;;;;6.45;3.33;;;;;;;;;;4966244;28;25072;-66
2024/01/28 11:18:28;;;;;;;7.22;3.78;;;;;;;;;;4970335;28;25068;-66
2024/01/28 11:20:54;;;;;;;10.05;3.45;;;;;;;;;;4982528;28;25137;-65
2024/01/28 11:23:20;;;;;;;7.80;2.95;;;;;;;;;;4988907;28;25110;-66
2024/01/28 11:25:46;;;;;;;9.40;4.25;;;;;;;;;;4999220;28;25054;-65
2024/01/28 11:28:13;;;;;;;5.85;3.85;;;;;;;;;;4989051;28;25079;-67
2024/01/28 11:30:40;;;;;;;9.48;3.58;;;;;;;;;;4986528;28;25059;-66
2024/01/28 11:33:16;;;;;;;10.40;3.75;;;;;;;;;;4982861;28;25096;-66
2024/01/28 11:35:43;;;;;;;4.93;3.20;;;;;;;;;;4974945;28;25136;-66
2024/01/28 11:38:10;;;;;;;8.20;3.58;;;;;;;;;;4981268;28;25097;-64
2024/01/28 11:40:37;;;;;;;7.95;3.42;;;;;;;;;;4976939;28;25113;-64
2024/01/28 11:43:07;;;;;;;7.78;3.25;;;;;;;;;;4973404;28;25078;-66
2024/01/28 11:45:35;;;;;;;6.70;3.20;;;;;;;;;;4978561;28;25064;-66
2024/01/28 11:48:11;;;;;;;7.25;3.65;;;;;;;;;;4971519;28;25056;-66
2024/01/28 11:50:38;;;;;;;6.88;3.10;;;;;;;;;;4973743;28;25074;-66
2024/01/28 11:53:09;;;;;;;7.18;2.83;;;;;;;;;;4979192;28;25068;-64
2024/01/28 11:55:35;;;;;;;6.13;2.88;;;;;;;;;;4973362;28;25121;-65
2024/01/28 11:58:01;;;;;;;6.93;3.38;;;;;;;;;;4969752;28;25049;-66
2024/01/28 12:00:28;;;;;;;5.57;3.28;;;;;;;;;;4981321;28;25068;-65
2024/01/28 12:02:54;;;;;;;6.43;3.65;;;;;;;;;;4969501;28;25047;-65
2024/01/28 12:05:20;;;;;;;10.88;3.80;;;;;;;;;;4972402;28;25066;-66
2024/01/28 12:07:46;;;;;;;6.00;3.35;;;;;;;;;;4965876;28;25355;-65
2024/01/28 12:10:13;;;;;;;8.27;3.50;;;;;;;;;;4958373;28;25068;-66
2024/01/28 12:12:42;;;;;;;7.90;3.35;;;;;;;;;;4975330;28;25056;-65
2024/01/28 12:15:09;;;;;;;6.55;3.10;;;;;;;;;;4972165;28;25057;-67
2024/01/28 12:17:36;;;;;;;4.47;2.85;;;;;;;;;;4973757;28;25067;-66
2024/01/28 12:20:03;;;;;;;8.88;3.63;;;;;;;;;;4973474;28;25058;-64
2024/01/28 12:22:35;;;;;;;7.68;4.05;;;;;;;;;;4971124;28;25156;-64
2024/01/28 12:25:06;;;;;;;6.65;2.53;;;;;;;;;;4973527;28;25066;-64
2024/01/28 12:27:32;;;;;;;6.32;3.22;;;;;;;;;;4972365;28;25176;-65
2024/01/28 12:29:58;;;;;;;8.25;2.90;;;;;;;;;;4983417;28;25070;-65
2024/01/28 12:32:24;;;;;;;4.38;3.00;;;;;;;;;;4973096;28;25108;-64
2024/01/28 12:34:50;;;;;;;10.05;3.28;;;;;;;;;;4970463;28;25166;-65
2024/01/28 12:37:17;;;;;;;6.63;3.42;;;;;;;;;;4971808;28;25070;-65
2024/01/28 12:39:43;;;;;;;5.32;3.13;;;;;;;;;;4968251;28;25101;-66
2024/01/28 12:42:09;;;;;;;6.60;3.13;;;;;;;;;;4968792;28;25094;-65
2024/01/28 12:44:35;;;;;;;5.35;3.13;;;;;;;;;;4971665;28;25083;-66
2024/01/28 12:47:02;;;;;;;5.10;2.70;;;;;;;;;;4971108;28;25078;-63
2024/01/28 12:49:27;;;;;;;4.45;2.80;;;;;;;;;;4945689;28;25066;-66
2024/01/28 12:51:53;;;;;;;6.07;3.00;;;;;;;;;;4958921;28;25119;-66
2024/01/28 12:54:19;;;;;;;6.10;2.88;;;;;;;;;;4962264;28;25082;-67
2024/01/28 12:56:45;;;;;;;6.03;2.90;;;;;;;;;;4972893;28;25136;-65
2024/01/28 12:59:11;;;;;;;9.73;3.70;;;;;;;;;;4967108;28;25085;-65
2024/01/28 13:01:37;;;;;;;7.18;3.03;;;;;;;;;;4967721;28;25140;-67
2024/01/28 13:04:03;;;;;;;6.22;2.88;;;;;;;;;;4972129;28;25168;-66
2024/01/28 13:06:29;;;;;;;5.95;2.90;;;;;;;;;;4976154;28;25133;-66
2024/01/28 13:08:55;;;;;;;6.13;2.90;;;;;;;;;;4962966;28;25085;-64
2024/01/28 13:11:21;;;;;;;5.10;3.05;;;;;;;;;;4968701;28;25123;-65
2024/01/28 13:13:47;;;;;;;5.43;2.83;;;;;;;;;;4970837;28;25098;-64
2024/01/28 13:16:13;;;;;;;6.93;2.88;;;;;;;;;;4968439;28;25150;-65
2024/01/28 13:18:40;;;;;;;8.82;3.20;;;;;;;;;;4963820;28;25079;-64
2024/01/28 13:21:06;;;;;;;5.72;3.42;;;;;;;;;;4980546;28;25063;-64
2024/01/28 13:23:33;;;;;;;5.85;3.35;;;;;;;;;;4973309;28;25057;-64
2024/01/28 13:25:59;;;;;;;6.00;3.22;;;;;;;;;;4967330;28;25073;-65
2024/01/28 13:28:25;;;;;;;6.32;3.28;;;;;;;;;;4974051;28;25089;-65
2024/01/28 13:30:51;;;;;;;6.65;2.88;;;;;;;;;;4967424;28;25072;-64
2024/01/28 13:33:17;;;;;;;4.80;3.15;;;;;;;;;;4968342;28;25069;-65
2024/01/28 13:35:43;;;;;;;5.97;3.28;;;;;;;;;;4969435;28;25078;-65
2024/01/28 13:38:09;;;;;;;7.28;3.20;;;;;;;;;;4968083;28;25088;-64
2024/01/28 13:40:35;;;;;;;5.43;3.08;;;;;;;;;;4964385;28;25102;-65
2024/01/28 13:43:01;;;;;;;8.05;3.08;;;;;;;;;;4964177;28;25068;-65
2024/01/28 13:45:27;;;;;;;5.88;3.65;;;;;;;;;;4965691;28;25076;-65
2024/01/28 13:47:53;;;;;;;5.22;2.92;;;;;;;;;;4967155;28;25072;-64
2024/01/28 13:50:19;;;;;;;9.48;3.40;;;;;;;;;;4968894;28;25059;-64
2024/01/28 13:52:45;;;;;;;4.72;3.15;;;;;;;;;;4983637;28;25071;-64
2024/01/28 13:55:11;;;;;;;5.00;3.13;;;;;;;;;;4988353;28;25087;-65
2024/01/28 13:57:38;;;;;;;6.10;3.10;;;;;;;;;;4976620;28;25089;-65
2024/01/28 14:00:05;;;;;;;7.28;3.17;;;;;;;;;;4968446;28;25067;-65
2024/01/28 14:02:31;;;;;;;4.60;2.60;;;;;;;;;;4966503;28;25101;-65
2024/01/28 14:04:57;;;;;;;4.95;3.05;;;;;;;;;;4966686;28;25091;-64
2024/01/28 14:07:23;;;;;;;4.07;2.40;;;;;;;;;;4966590;28;25069;-64
2024/01/28 14:09:49;;;;;;;5.80;3.10;;;;;;;;;;4970105;28;25070;-65
2024/01/28 14:12:15;;;;;;;5.95;2.92;;;;;;;;;;4966323;28;25053;-66
2024/01/28 14:14:41;;;;;;;5.05;3.15;;;;;;;;;;4964354;28;25044;-65
2024/01/28 14:17:08;;;;;;;4.93;2.88;;;;;;;;;;4964895;28;25056;-65
2024/01/28 14:19:37;;;;;;;4.20;2.65;;;;;;;;;;4968396;28;25052;-65
2024/01/28 14:22:03;;;;;;;5.35;3.28;;;;;;;;;;4963488;28;25109;-67
2024/01/28 14:24:29;;;;;;;5.03;3.25;;;;;;;;;;4968310;28;25123;-65
2024/01/28 14:26:55;;;;;;;7.00;3.58;;;;;;;;;;4984806;28;25068;-65
2024/01/28 14:29:21;;;;;;;5.10;2.50;;;;;;;;;;4971140;28;25080;-64